sensor_id;sensor_type;location;lat;lon;timestamp;P1;durP1;ratioP1;P2;durP2;ratioP2
21517;SDS011;61765;45.794;24.150;2024-02-26T00:00:36;2.78;;;2.30;;
21517;SDS011;61765;45.794;24.150;2024-02-26T00:08:45;4.15;;;2.30;;
21517;SDS011;61765;45.794;24.150;2024-02-26T00:16:51;2.88;;;2.20;;
21517;SDS011;61765;45.794;24.150;2024-02-26T00:24:59;2.72;;;1.92;;
21517;SDS011;61765;45.794;24.150;2024-02-26T00:33:05;4.72;;;2.05;;
21517;SDS011;61765;45.794;24.150;2024-02-26T00:41:14;3.10;;;2.28;;
21517;SDS011;61765;45.794;24.150;2024-02-26T00:49:20;2.88;;;2.28;;
21517;SDS011;61765;45.794;24.150;2024-02-26T00:57:29;3.75;;;2.30;;
21517;SDS011;61765;45.794;24.150;2024-02-26T01:05:34;3.42;;;1.65;;
21517;SDS011;61765;45.794;24.150;2024-02-26T01:13:43;2.22;;;1.60;;
21517;SDS011;61765;45.794;24.150;2024-02-26T01:21:49;2.53;;;1.92;;
21517;SDS011;61765;45.794;24.150;2024-02-26T01:29:58;2.60;;;1.58;;
21517;SDS011;61765;45.794;24.150;2024-02-26T01:38:05;2.72;;;1.70;;
21517;SDS011;61765;45.794;24.150;2024-02-26T01:46:14;4.53;;;1.50;;
21517;SDS011;61765;45.794;24.150;2024-02-26T01:54:21;5.20;;;1.90;;
21517;SDS011;61765;45.794;24.150;2024-02-26T02:02:29;3.20;;;2.40;;
21517;SDS011;61765;45.794;24.150;2024-02-26T02:10:36;4.45;;;3.25;;
21517;SDS011;61765;45.794;24.150;2024-02-26T02:18:45;6.00;;;3.30;;
21517;SDS011;61765;45.794;24.150;2024-02-26T02:26:53;4.75;;;3.78;;
21517;SDS011;61765;45.794;24.150;2024-02-26T02:35:00;7.10;;;3.90;;
21517;SDS011;61765;45.794;24.150;2024-02-26T02:43:08;3.65;;;2.80;;
21517;SDS011;61765;45.794;24.150;2024-02-26T02:51:14;4.55;;;3.28;;
21517;SDS011;61765;45.794;24.150;2024-02-26T02:59:22;4.80;;;3.40;;
21517;SDS011;61765;45.794;24.150;2024-02-26T03:07:28;8.20;;;4.47;;
21517;SDS011;61765;45.794;24.150;2024-02-26T03:15:37;8.30;;;4.70;;
21517;SDS011;61765;45.794;24.150;2024-02-26T03:23:43;7.75;;;5.25;;
21517;SDS011;61765;45.794;24.150;2024-02-26T03:31:51;8.30;;;5.38;;
21517;SDS011;61765;45.794;24.150;2024-02-26T03:39:57;8.38;;;5.10;;
21517;SDS011;61765;45.794;24.150;2024-02-26T03:48:06;8.70;;;5.28;;
21517;SDS011;61765;45.794;24.150;2024-02-26T03:56:12;10.10;;;6.05;;
21517;SDS011;61765;45.794;24.150;2024-02-26T04:04:20;8.00;;;5.78;;
21517;SDS011;61765;45.794;24.150;2024-02-26T04:12:26;10.48;;;6.72;;
21517;SDS011;61765;45.794;24.150;2024-02-26T04:20:35;8.18;;;5.68;;
21517;SDS011;61765;45.794;24.150;2024-02-26T04:28:41;8.98;;;6.28;;
21517;SDS011;61765;45.794;24.150;2024-02-26T04:36:49;14.88;;;7.93;;
21517;SDS011;61765;45.794;24.150;2024-02-26T04:44:55;9.70;;;6.57;;
21517;SDS011;61765;45.794;24.150;2024-02-26T04:53:04;11.20;;;7.45;;
21517;SDS011;61765;45.794;24.150;2024-02-26T05:01:10;11.75;;;8.15;;
21517;SDS011;61765;45.794;24.150;2024-02-26T05:09:18;11.48;;;7.43;;
21517;SDS011;61765;45.794;24.150;2024-02-26T05:17:24;10.85;;;6.85;;
21517;SDS011;61765;45.794;24.150;2024-02-26T05:25:33;10.93;;;7.07;;
21517;SDS011;61765;45.794;24.150;2024-02-26T05:33:39;13.93;;;8.23;;
21517;SDS011;61765;45.794;24.150;2024-02-26T05:41:47;16.63;;;11.63;;
21517;SDS011;61765;45.794;24.150;2024-02-26T05:49:53;12.77;;;8.07;;
21517;SDS011;61765;45.794;24.150;2024-02-26T05:58:04;10.95;;;7.00;;
21517;SDS011;61765;45.794;24.150;2024-02-26T06:06:10;11.88;;;8.05;;
21517;SDS011;61765;45.794;24.150;2024-02-26T06:14:20;11.23;;;6.78;;
21517;SDS011;61765;45.794;24.150;2024-02-26T06:22:26;15.50;;;8.80;;
21517;SDS011;61765;45.794;24.150;2024-02-26T06:30:35;14.07;;;8.43;;
21517;SDS011;61765;45.794;24.150;2024-02-26T06:38:41;14.55;;;8.32;;
21517;SDS011;61765;45.794;24.150;2024-02-26T06:46:49;14.88;;;8.02;;
21517;SDS011;61765;45.794;24.150;2024-02-26T06:54:55;15.43;;;7.65;;
21517;SDS011;61765;45.794;24.150;2024-02-26T07:03:03;11.13;;;7.05;;
21517;SDS011;61765;45.794;24.150;2024-02-26T07:11:10;11.63;;;7.13;;
21517;SDS011;61765;45.794;24.150;2024-02-26T07:19:18;16.55;;;8.10;;
21517;SDS011;61765;45.794;24.150;2024-02-26T07:27:24;17.00;;;7.78;;
21517;SDS011;61765;45.794;24.150;2024-02-26T07:35:32;20.75;;;8.05;;
21517;SDS011;61765;45.794;24.150;2024-02-26T07:43:40;13.18;;;7.20;;
21517;SDS011;61765;45.794;24.150;2024-02-26T07:51:48;15.30;;;7.47;;
21517;SDS011;61765;45.794;24.150;2024-02-26T07:59:54;18.13;;;8.40;;
21517;SDS011;61765;45.794;24.150;2024-02-26T08:08:02;10.15;;;7.07;;
21517;SDS011;61765;45.794;24.150;2024-02-26T08:16:09;12.05;;;6.55;;
21517;SDS011;61765;45.794;24.150;2024-02-26T08:24:17;11.48;;;6.55;;
21517;SDS011;61765;45.794;24.150;2024-02-26T08:32:23;13.55;;;7.20;;
21517;SDS011;61765;45.794;24.150;2024-02-26T08:40:32;10.32;;;5.72;;
21517;SDS011;61765;45.794;24.150;2024-02-26T08:48:38;13.95;;;5.88;;
21517;SDS011;61765;45.794;24.150;2024-02-26T08:56:47;6.50;;;3.58;;
21517;SDS011;61765;45.794;24.150;2024-02-26T09:04:53;7.82;;;3.45;;
21517;SDS011;61765;45.794;24.150;2024-02-26T09:13:04;7.38;;;4.22;;
21517;SDS011;61765;45.794;24.150;2024-02-26T09:21:11;9.45;;;4.45;;
21517;SDS011;61765;45.794;24.150;2024-02-26T09:29:21;8.00;;;4.30;;
21517;SDS011;61765;45.794;24.150;2024-02-26T09:37:28;8.55;;;4.40;;
21517;SDS011;61765;45.794;24.150;2024-02-26T09:45:37;4.95;;;3.90;;
21517;SDS011;61765;45.794;24.150;2024-02-26T09:53:43;4.88;;;3.97;;
21517;SDS011;61765;45.794;24.150;2024-02-26T10:01:54;7.07;;;4.32;;
21517;SDS011;61765;45.794;24.150;2024-02-26T10:10:03;8.43;;;4.25;;
21517;SDS011;61765;45.794;24.150;2024-02-26T10:18:12;8.50;;;4.35;;
21517;SDS011;61765;45.794;24.150;2024-02-26T10:26:18;8.55;;;3.85;;
21517;SDS011;61765;45.794;24.150;2024-02-26T10:34:27;6.80;;;4.40;;
21517;SDS011;61765;45.794;24.150;2024-02-26T10:42:33;7.45;;;4.60;;
21517;SDS011;61765;45.794;24.150;2024-02-26T10:50:42;7.35;;;4.75;;
21517;SDS011;61765;45.794;24.150;2024-02-26T10:58:48;10.65;;;4.85;;
21517;SDS011;61765;45.794;24.150;2024-02-26T11:06:57;10.65;;;5.57;;
21517;SDS011;61765;45.794;24.150;2024-02-26T11:15:04;6.97;;;4.70;;
21517;SDS011;61765;45.794;24.150;2024-02-26T11:23:14;10.48;;;5.35;;
21517;SDS011;61765;45.794;24.150;2024-02-26T11:31:20;6.35;;;4.55;;
21517;SDS011;61765;45.794;24.150;2024-02-26T11:39:32;5.88;;;4.20;;
21517;SDS011;61765;45.794;24.150;2024-02-26T11:47:39;6.55;;;4.28;;
21517;SDS011;61765;45.794;24.150;2024-02-26T11:55:47;12.70;;;4.20;;
21517;SDS011;61765;45.794;24.150;2024-02-26T12:03:54;17.48;;;6.30;;
21517;SDS011;61765;45.794;24.150;2024-02-26T12:12:04;8.27;;;4.07;;
21517;SDS011;61765;45.794;24.150;2024-02-26T12:20:12;7.57;;;4.15;;
21517;SDS011;61765;45.794;24.150;2024-02-26T12:28:21;41.97;;;15.25;;
21517;SDS011;61765;45.794;24.150;2024-02-26T12:36:27;11.95;;;6.25;;
21517;SDS011;61765;45.794;24.150;2024-02-26T12:44:40;11.18;;;6.22;;
21517;SDS011;61765;45.794;24.150;2024-02-26T12:52:51;11.80;;;4.82;;
21517;SDS011;61765;45.794;24.150;2024-02-26T13:01:01;7.93;;;5.03;;
21517;SDS011;61765;45.794;24.150;2024-02-26T13:09:12;7.80;;;4.38;;
21517;SDS011;61765;45.794;24.150;2024-02-26T13:17:28;8.60;;;3.95;;
21517;SDS011;61765;45.794;24.150;2024-02-26T13:25:36;9.77;;;4.25;;
21517;SDS011;61765;45.794;24.150;2024-02-26T13:33:49;8.90;;;4.05;;
21517;SDS011;61765;45.794;24.150;2024-02-26T13:41:57;7.18;;;4.72;;
21517;SDS011;61765;45.794;24.150;2024-02-26T13:50:06;7.47;;;4.35;;
21517;SDS011;61765;45.794;24.150;2024-02-26T13:58:12;5.05;;;3.78;;
21517;SDS011;61765;45.794;24.150;2024-02-26T14:06:25;7.30;;;4.32;;
21517;SDS011;61765;45.794;24.150;2024-02-26T14:14:31;8.05;;;4.30;;
21517;SDS011;61765;45.794;24.150;2024-02-26T14:22:43;6.18;;;3.67;;
21517;SDS011;61765;45.794;24.150;2024-02-26T14:30:48;7.53;;;4.40;;
21517;SDS011;61765;45.794;24.150;2024-02-26T14:38:57;5.60;;;4.15;;
21517;SDS011;61765;45.794;24.150;2024-02-26T14:47:03;8.15;;;4.60;;
21517;SDS011;61765;45.794;24.150;2024-02-26T14:55:11;8.57;;;4.90;;
21517;SDS011;61765;45.794;24.150;2024-02-26T15:03:17;10.25;;;4.43;;
21517;SDS011;61765;45.794;24.150;2024-02-26T15:11:26;10.00;;;5.22;;
21517;SDS011;61765;45.794;24.150;2024-02-26T15:19:31;6.22;;;4.50;;
21517;SDS011;61765;45.794;24.150;2024-02-26T15:27:40;7.20;;;4.95;;
21517;SDS011;61765;45.794;24.150;2024-02-26T15:35:46;8.05;;;4.80;;
21517;SDS011;61765;45.794;24.150;2024-02-26T15:43:54;6.85;;;4.28;;
21517;SDS011;61765;45.794;24.150;2024-02-26T15:52:02;9.13;;;5.20;;
21517;SDS011;61765;45.794;24.150;2024-02-26T16:00:12;7.82;;;5.15;;
21517;SDS011;61765;45.794;24.150;2024-02-26T16:08:20;7.45;;;4.95;;
21517;SDS011;61765;45.794;24.150;2024-02-26T16:16:30;10.77;;;5.10;;
21517;SDS011;61765;45.794;24.150;2024-02-26T16:24:38;7.78;;;5.45;;
21517;SDS011;61765;45.794;24.150;2024-02-26T16:32:47;6.85;;;4.72;;
21517;SDS011;61765;45.794;24.150;2024-02-26T16:40:52;9.88;;;5.40;;
21517;SDS011;61765;45.794;24.150;2024-02-26T16:49:01;10.07;;;5.28;;
21517;SDS011;61765;45.794;24.150;2024-02-26T16:57:09;10.82;;;5.78;;
21517;SDS011;61765;45.794;24.150;2024-02-26T17:05:18;9.02;;;5.78;;
21517;SDS011;61765;45.794;24.150;2024-02-26T17:13:24;16.58;;;7.00;;
21517;SDS011;61765;45.794;24.150;2024-02-26T17:21:32;15.65;;;9.30;;
21517;SDS011;61765;45.794;24.150;2024-02-26T17:29:39;11.88;;;7.25;;
21517;SDS011;61765;45.794;24.150;2024-02-26T17:37:48;11.52;;;6.72;;
21517;SDS011;61765;45.794;24.150;2024-02-26T17:45:54;10.00;;;6.07;;
21517;SDS011;61765;45.794;24.150;2024-02-26T17:54:03;12.50;;;6.50;;
21517;SDS011;61765;45.794;24.150;2024-02-26T18:02:09;9.45;;;6.10;;
21517;SDS011;61765;45.794;24.150;2024-02-26T18:10:17;13.02;;;6.03;;
21517;SDS011;61765;45.794;24.150;2024-02-26T18:18:25;11.00;;;6.13;;
21517;SDS011;61765;45.794;24.150;2024-02-26T18:26:37;15.85;;;7.10;;
21517;SDS011;61765;45.794;24.150;2024-02-26T18:34:58;12.40;;;6.97;;
21517;SDS011;61765;45.794;24.150;2024-02-26T18:43:06;12.70;;;6.63;;
21517;SDS011;61765;45.794;24.150;2024-02-26T18:51:12;9.85;;;5.70;;
21517;SDS011;61765;45.794;24.150;2024-02-26T18:59:20;12.43;;;6.50;;
21517;SDS011;61765;45.794;24.150;2024-02-26T19:07:27;11.65;;;6.85;;
21517;SDS011;61765;45.794;24.150;2024-02-26T19:15:35;11.93;;;6.28;;
21517;SDS011;61765;45.794;24.150;2024-02-26T19:23:47;11.77;;;5.93;;
21517;SDS011;61765;45.794;24.150;2024-02-26T19:31:55;11.27;;;5.75;;
21517;SDS011;61765;45.794;24.150;2024-02-26T19:40:04;6.82;;;4.75;;
21517;SDS011;61765;45.794;24.150;2024-02-26T19:48:15;8.93;;;5.40;;
21517;SDS011;61765;45.794;24.150;2024-02-26T19:56:22;11.00;;;4.30;;
21517;SDS011;61765;45.794;24.150;2024-02-26T20:04:32;10.35;;;4.95;;
21517;SDS011;61765;45.794;24.150;2024-02-26T20:12:38;9.50;;;4.80;;
21517;SDS011;61765;45.794;24.150;2024-02-26T20:20:47;7.82;;;4.50;;
21517;SDS011;61765;45.794;24.150;2024-02-26T20:28:53;6.68;;;4.43;;
21517;SDS011;61765;45.794;24.150;2024-02-26T20:37:13;9.27;;;4.28;;
21517;SDS011;61765;45.794;24.150;2024-02-26T20:45:26;8.75;;;4.40;;
21517;SDS011;61765;45.794;24.150;2024-02-26T20:53:35;8.77;;;4.65;;
21517;SDS011;61765;45.794;24.150;2024-02-26T21:01:43;7.53;;;4.45;;
21517;SDS011;61765;45.794;24.150;2024-02-26T21:09:51;10.65;;;4.45;;
21517;SDS011;61765;45.794;24.150;2024-02-26T21:17:57;8.27;;;4.88;;
21517;SDS011;61765;45.794;24.150;2024-02-26T21:26:06;6.60;;;4.38;;
21517;SDS011;61765;45.794;24.150;2024-02-26T21:34:12;9.52;;;4.10;;
21517;SDS011;61765;45.794;24.150;2024-02-26T21:42:23;5.97;;;4.00;;
21517;SDS011;61765;45.794;24.150;2024-02-26T21:50:32;9.00;;;3.83;;
21517;SDS011;61765;45.794;24.150;2024-02-26T22:07:29;6.68;;;4.00;;
21517;SDS011;61765;45.794;24.150;2024-02-26T22:16:07;6.63;;;4.00;;
21517;SDS011;61765;45.794;24.150;2024-02-26T22:24:13;6.50;;;3.90;;
21517;SDS011;61765;45.794;24.150;2024-02-26T22:32:22;7.68;;;4.00;;
21517;SDS011;61765;45.794;24.150;2024-02-26T22:40:28;5.40;;;4.13;;
21517;SDS011;61765;45.794;24.150;2024-02-26T22:48:36;13.05;;;4.72;;
21517;SDS011;61765;45.794;24.150;2024-02-26T22:56:42;6.97;;;3.88;;
21517;SDS011;61765;45.794;24.150;2024-02-26T23:04:51;10.13;;;4.00;;
21517;SDS011;61765;45.794;24.150;2024-02-26T23:12:57;6.90;;;4.18;;
21517;SDS011;61765;45.794;24.150;2024-02-26T23:21:05;7.65;;;4.00;;
21517;SDS011;61765;45.794;24.150;2024-02-26T23:29:11;6.50;;;4.03;;
21517;SDS011;61765;45.794;24.150;2024-02-26T23:37:19;7.97;;;4.25;;
21517;SDS011;61765;45.794;24.150;2024-02-26T23:45:25;7.70;;;4.30;;
21517;SDS011;61765;45.794;24.150;2024-02-26T23:53:33;8.80;;;4.03;;
